createdAt,value
2019-03-27T00:01:15.694Z,1
2019-03-27T00:07:10.695Z,1.28
2019-03-27T00:13:05.706Z,1.12
2019-03-27T00:19:00.730Z,1.46
2019-03-27T00:24:55.736Z,1.3
2019-03-27T00:30:51.032Z,1.38
2019-03-27T00:36:45.718Z,1.29
2019-03-27T00:42:40.766Z,1.18
2019-03-27T00:48:35.783Z,1.4
2019-03-27T00:54:30.727Z,1.47
2019-03-27T01:00:25.770Z,1.41
2019-03-27T01:06:20.783Z,1.67
2019-03-27T01:12:15.750Z,1.13
2019-03-27T01:18:10.764Z,1.6
2019-03-27T01:24:05.740Z,1.58
2019-03-27T01:30:00.760Z,1.41
2019-03-27T01:35:55.751Z,1.62
2019-03-27T01:41:50.756Z,1.56
2019-03-27T01:47:45.804Z,1.66
2019-03-27T01:53:40.810Z,1.89
2019-03-27T01:59:35.765Z,1.67
2019-03-27T02:05:30.760Z,1.52
2019-03-27T02:11:25.825Z,1.51
2019-03-27T02:17:20.768Z,1.49
2019-03-27T02:23:15.780Z,1.4
2019-03-27T02:29:10.793Z,1.47
2019-03-27T02:35:05.770Z,1.8
2019-03-27T02:41:00.828Z,1.59
2019-03-27T02:46:55.799Z,1.5
2019-03-27T02:52:50.827Z,1.62
2019-03-27T02:58:45.792Z,1.91
2019-03-27T03:04:40.783Z,1.79
2019-03-27T03:10:35.794Z,2.16
2019-03-27T03:16:41.672Z,1.63
2019-03-27T03:22:25.823Z,2.03
2019-03-27T03:28:20.816Z,1.44
2019-03-27T03:34:15.821Z,1.63
2019-03-27T03:40:10.827Z,1.68
2019-03-27T03:46:05.830Z,1.56
2019-03-27T03:52:00.816Z,2.16
2019-03-27T03:57:55.834Z,1.76
2019-03-27T04:03:50.855Z,1.9
2019-03-27T04:09:45.872Z,1.94
2019-03-27T04:15:40.852Z,2.28
2019-03-27T04:21:35.887Z,1.88
2019-03-27T04:27:30.844Z,1.99
2019-03-27T04:33:25.824Z,1.66
2019-03-27T04:39:20.840Z,2.2
2019-03-27T04:45:15.901Z,1.56
2019-03-27T04:51:10.867Z,2.17
2019-03-27T04:57:05.854Z,2.15
2019-03-27T05:03:00.848Z,1.84
2019-03-27T05:08:55.855Z,1.85
2019-03-27T05:14:50.922Z,2.01
2019-03-27T05:20:45.859Z,2.24
2019-03-27T05:26:40.933Z,1.75
2019-03-27T05:32:35.882Z,1.59
2019-03-27T05:38:30.887Z,2.47
2019-03-27T05:44:25.889Z,2.12
2019-03-27T05:50:20.881Z,2.14
2019-03-27T05:56:15.903Z,1.81
2019-03-27T06:02:10.903Z,1.61
2019-03-27T06:08:05.898Z,1.68
2019-03-27T06:14:00.902Z,2.13
2019-03-27T06:19:55.913Z,1.83
2019-03-27T06:25:50.902Z,1.9
2019-03-27T06:31:45.901Z,2.42
2019-03-27T06:37:40.919Z,3.1
2019-03-27T06:43:35.954Z,2.8
2019-03-27T06:49:30.932Z,3.3
2019-03-27T06:55:25.921Z,2.52
2019-03-27T07:01:20.940Z,2.5
2019-03-27T07:07:15.978Z,2.64
2019-03-27T07:13:10.925Z,2.97
2019-03-27T07:19:05.931Z,2.38
2019-03-27T07:25:00.950Z,3.2
2019-03-27T07:30:55.947Z,2.96
2019-03-27T07:36:50.934Z,2.97
2019-03-27T07:42:45.930Z,2.55
2019-03-27T07:48:53.157Z,2.43
2019-03-27T07:54:35.964Z,2.12
2019-03-27T08:00:30.958Z,2.14
2019-03-27T08:06:25.985Z,2.25
2019-03-27T08:12:21.010Z,2.54
2019-03-27T08:18:15.951Z,2.76
2019-03-27T08:24:10.966Z,2.47
2019-03-27T08:30:05.963Z,1.77
2019-03-27T08:36:00.987Z,2.06
2019-03-27T08:41:56.012Z,2.24
2019-03-27T08:47:51.027Z,2.01
2019-03-27T08:53:45.965Z,2.03
2019-03-27T08:59:40.981Z,2.23
2019-03-27T09:05:35.985Z,1.91
2019-03-27T09:11:30.975Z,1.97
2019-03-27T09:17:26.027Z,1.8
2019-03-27T09:23:21.010Z,1.91
2019-03-27T09:29:15.989Z,1.99
2019-03-27T09:35:10.999Z,2.15
2019-03-27T09:41:06.003Z,2.12
2019-03-27T09:47:01.058Z,1.86
2019-03-27T09:52:56.000Z,1.8
2019-03-27T09:58:51.052Z,1.95
2019-03-27T10:04:46.064Z,1.98
2019-03-27T10:10:41.033Z,1.75
2019-03-27T10:16:36.031Z,1.95
2019-03-27T10:22:31.033Z,1.86
2019-03-27T10:28:26.078Z,1.81
2019-03-27T10:34:21.027Z,1.86
2019-03-27T10:40:16.047Z,1.91
2019-03-27T10:46:11.048Z,2.12
2019-03-27T10:52:06.062Z,1.9
2019-03-27T10:58:01.090Z,2.43
2019-03-27T11:03:56.037Z,1.92
2019-03-27T11:09:51.088Z,1.85
2019-03-27T11:15:46.090Z,1.95
2019-03-27T11:21:41.124Z,2.07
2019-03-27T11:27:36.050Z,1.97
2019-03-27T11:33:31.055Z,2.4
2019-03-27T11:39:26.058Z,1.83
2019-03-27T11:45:21.067Z,2.47
2019-03-27T11:51:16.066Z,2.15
2019-03-27T11:57:11.113Z,2.42
2019-03-27T12:03:06.087Z,2.67
2019-03-27T12:09:01.068Z,1.96
2019-03-27T12:14:56.084Z,2.33
2019-03-27T12:20:58.636Z,2.73
2019-03-27T12:26:46.122Z,2.77
2019-03-27T12:32:41.086Z,2.44
2019-03-27T12:38:36.099Z,2.48
2019-03-27T12:44:31.107Z,2.52
2019-03-27T12:50:26.100Z,2.77
2019-03-27T12:56:21.168Z,2.65
2019-03-27T13:02:16.130Z,6.03
2019-03-27T13:08:11.138Z,13.2
2019-03-27T13:14:06.144Z,10.37
2019-03-27T13:20:01.161Z,8.75
2019-03-27T13:25:56.137Z,10.33
2019-03-27T13:31:51.123Z,8.03
2019-03-27T13:37:46.145Z,13.52
2019-03-27T13:43:41.199Z,13.61
2019-03-27T13:49:36.113Z,4.95
2019-03-27T13:55:31.131Z,7.62
2019-03-27T14:01:26.160Z,8.45
2019-03-27T14:07:21.214Z,9.28
2019-03-27T14:13:16.152Z,2.48
2019-03-27T14:19:11.164Z,7.93
2019-03-27T14:25:06.200Z,10.49
2019-03-27T14:31:01.171Z,4.61
2019-03-27T14:36:56.175Z,6.9
2019-03-27T14:42:51.191Z,2.9
2019-03-27T14:48:46.166Z,9.42
2019-03-27T14:54:41.168Z,5.72
2019-03-27T15:00:36.182Z,8.87
2019-03-27T15:06:31.191Z,6.76
2019-03-27T15:12:26.187Z,2.8
2019-03-27T15:18:21.169Z,6.59
2019-03-27T15:24:16.187Z,1.77
2019-03-27T15:30:12.858Z,6.65
2019-03-27T15:36:06.190Z,8.8
2019-03-27T15:42:01.208Z,3.84
2019-03-27T15:47:56.198Z,6.16
2019-03-27T15:53:51.311Z,8.24
2019-03-27T15:59:46.277Z,3.31
2019-03-27T16:05:41.219Z,2.8
2019-03-27T16:11:36.233Z,5.07
2019-03-27T16:17:31.258Z,6.34
2019-03-27T16:23:26.215Z,5.63
2019-03-27T16:29:21.208Z,4.9
2019-03-27T16:35:16.231Z,6.3
2019-03-27T16:41:11.262Z,4.57
2019-03-27T16:47:06.253Z,2.83
2019-03-27T16:53:03.549Z,4.25
2019-03-27T16:58:56.252Z,4.02
2019-03-27T17:04:51.240Z,3.55
2019-03-27T17:10:46.244Z,4.15
2019-03-27T17:16:41.255Z,2.72
2019-03-27T17:22:44.405Z,4.96
2019-03-27T17:28:31.249Z,3.44
2019-03-27T17:35:02.652Z,3.4
2019-03-27T17:40:21.291Z,4.58
2019-03-27T17:46:16.265Z,5.7
2019-03-27T17:52:11.250Z,3
2019-03-27T17:58:06.281Z,4.18
2019-03-27T18:04:01.344Z,4.17
2019-03-27T18:09:56.265Z,4.94
2019-03-27T18:15:51.277Z,4.41
2019-03-27T18:21:46.311Z,4.16
2019-03-27T18:27:41.292Z,4.14
2019-03-27T18:33:36.293Z,3.4
2019-03-27T18:39:31.275Z,5.08
2019-03-27T18:45:26.308Z,4.87
2019-03-27T18:51:21.281Z,4.75
2019-03-27T18:57:16.291Z,4.17
2019-03-27T19:03:11.367Z,3.94
2019-03-27T19:09:06.314Z,4.17
2019-03-27T19:15:01.328Z,3.93
2019-03-27T19:20:56.312Z,3.66
2019-03-27T19:26:51.329Z,3.51
2019-03-27T19:32:46.326Z,3.95
2019-03-27T19:38:41.385Z,4.43
2019-03-27T19:44:36.341Z,3.58
2019-03-27T19:50:31.331Z,2.52
2019-03-27T19:56:26.356Z,2.71
2019-03-27T20:02:21.375Z,3.61
2019-03-27T20:08:16.367Z,2.43
2019-03-27T20:14:11.357Z,2.26
2019-03-27T20:20:07.327Z,2.4
2019-03-27T20:26:01.358Z,2.81
2019-03-27T20:31:56.357Z,2.78
2019-03-27T20:37:51.369Z,3.03
2019-03-27T20:43:46.417Z,2.86
2019-03-27T20:49:41.368Z,2.88
2019-03-27T20:55:36.390Z,2.56
2019-03-27T21:01:31.384Z,2.2
2019-03-27T21:07:26.382Z,2.1
2019-03-27T21:13:21.361Z,2.18
2019-03-27T21:19:16.390Z,2.61
2019-03-27T21:25:11.385Z,2.99
2019-03-27T21:31:06.403Z,2.61
2019-03-27T21:37:01.386Z,2.8
2019-03-27T21:42:56.418Z,2.2
2019-03-27T21:48:51.392Z,2.09
2019-03-27T21:54:46.428Z,2.22
2019-03-27T22:00:41.411Z,2.29
2019-03-27T22:06:36.430Z,2.3
2019-03-27T22:12:31.412Z,2.35
2019-03-27T22:18:26.486Z,1.75
2019-03-27T22:24:21.405Z,1.82
2019-03-27T22:30:16.397Z,1.75
2019-03-27T22:36:11.443Z,1.79
2019-03-27T22:42:06.405Z,1.69
2019-03-27T22:48:01.446Z,1.42
2019-03-27T22:53:56.452Z,1.41
2019-03-27T22:59:51.450Z,1.54
2019-03-27T23:05:46.418Z,1.44
2019-03-27T23:11:41.445Z,1.81
2019-03-27T23:17:36.419Z,1.41
2019-03-27T23:23:31.455Z,1.56
2019-03-27T23:29:26.427Z,1.76
2019-03-27T23:35:21.464Z,1.4
2019-03-27T23:41:16.449Z,1.45
2019-03-27T23:47:11.459Z,1.57
2019-03-27T23:53:06.450Z,1.51
2019-03-27T23:59:01.454Z,1.48
